Salt Lake City, Utah
Traffic Map
Current Weather Conditions
Salt Lake City, Utah
Overcast Light Snow
Overcast
30°
Feels Like: 23°
Wind Chill: 23° Ceiling: 1500
Heat Index: 30° Visibility: 2.5mi
Dew Point: 27° Wind: 7mph
Humidity: 88% Direction: 10° (N)
Pressure: 30.02in Gusts: 0mph
Raw Report DataKSLC 121522Z 01006KT 2 1/2SM R16L/6000VP6000FT -SN BR SCT009 OVC015 M01/M03 A3002 RMK AO2 P0000 T10111028
Traffic Incident Summary
Active as of:
Severity:
Category:
InformationThere was an issue retrieving the traffic information for this location. Please try a different location or try again shortly.
Advertisements